KSUA/SUA METAR and TAF weather

Enter ICAO airport designator
Station Type Date Time Source
KSUA METAR 2021/10/22 18:47 UTC NOAA

KSUA 221847Z 12011KT 6SM BRSH FEW004 BKN018 24/22 A3002


Station Type Date Time Source
KSUA Decoded METAR 2021/10/22 18:47 UTC NOAA

Stuart, Witham Field Airport, FL, United States (KSUA) 27-10-54N 080-13-16W
Oct 22, 2021 - 02:47 PM EDT / 2021.10.22 1847 UTC
Wind: from the ESE (120 degrees) at 13 MPH (11 KT):0
Visibility: 6 mile(s):0
Sky conditions: mostly cloudy
Weather: mist showers
Temperature: 75 F (24 C)
Dew Point: 71 F (22 C)
Relative Humidity: 88%
Pressure (altimeter): 30.02 in. Hg (1016 hPa)
ob: KSUA 221847Z 12011KT 6SM BRSH FEW004 BKN018 24/22 A3002
cycle: 19

Station Type Date Time Source
KSUA TAF 2021/10/22 18:42 UTC NOAA

TAF KSUA 221739Z 2218/2318 07010KT P6SM VCSH SCT015 SCT025
TEMPO 2218/2220 VRB10G18KT 3SM SHRA BKN020
FM230100 VRB05KT P6SM VCSH SCT040 SCT120 SCT250
FM231500 07006KT P6SM VCSH SCT040 SCT250
AMD NOT SKED

Example: see airport list